sensor_id;sensor_type;location;lat;lon;timestamp;P1;durP1;ratioP1;P2;durP2;ratioP2
78873;SDS011;68250;43.514;1.494;2023-05-07T00:00:21;10.23;;;5.05;;
78873;SDS011;68250;43.514;1.494;2023-05-07T00:02:47;11.02;;;4.82;;
78873;SDS011;68250;43.514;1.494;2023-05-07T00:05:12;10.20;;;4.75;;
78873;SDS011;68250;43.514;1.494;2023-05-07T00:07:38;10.43;;;5.37;;
78873;SDS011;68250;43.514;1.494;2023-05-07T00:10:04;9.30;;;4.57;;
78873;SDS011;68250;43.514;1.494;2023-05-07T00:12:31;8.00;;;4.57;;
78873;SDS011;68250;43.514;1.494;2023-05-07T00:14:59;12.25;;;4.35;;
78873;SDS011;68250;43.514;1.494;2023-05-07T00:17:25;11.60;;;4.88;;
78873;SDS011;68250;43.514;1.494;2023-05-07T00:19:51;12.50;;;4.90;;
78873;SDS011;68250;43.514;1.494;2023-05-07T00:22:16;8.48;;;4.68;;
78873;SDS011;68250;43.514;1.494;2023-05-07T00:24:42;10.87;;;4.77;;
78873;SDS011;68250;43.514;1.494;2023-05-07T00:27:08;13.55;;;5.10;;
78873;SDS011;68250;43.514;1.494;2023-05-07T00:29:33;9.47;;;5.00;;
78873;SDS011;68250;43.514;1.494;2023-05-07T00:31:59;11.27;;;5.17;;
78873;SDS011;68250;43.514;1.494;2023-05-07T00:34:24;11.40;;;4.40;;
78873;SDS011;68250;43.514;1.494;2023-05-07T00:36:50;11.27;;;5.10;;
78873;SDS011;68250;43.514;1.494;2023-05-07T00:39:16;10.07;;;4.55;;
78873;SDS011;68250;43.514;1.494;2023-05-07T00:41:41;10.00;;;4.63;;
78873;SDS011;68250;43.514;1.494;2023-05-07T00:44:07;8.48;;;4.38;;
78873;SDS011;68250;43.514;1.494;2023-05-07T00:46:33;7.33;;;4.47;;
78873;SDS011;68250;43.514;1.494;2023-05-07T00:48:59;8.15;;;4.68;;
78873;SDS011;68250;43.514;1.494;2023-05-07T00:51:25;9.05;;;4.85;;
78873;SDS011;68250;43.514;1.494;2023-05-07T00:53:54;10.23;;;4.80;;
78873;SDS011;68250;43.514;1.494;2023-05-07T00:56:20;11.18;;;4.95;;
78873;SDS011;68250;43.514;1.494;2023-05-07T00:58:47;10.40;;;5.22;;
78873;SDS011;68250;43.514;1.494;2023-05-07T01:01:13;11.77;;;4.67;;
78873;SDS011;68250;43.514;1.494;2023-05-07T01:03:40;11.85;;;4.85;;
78873;SDS011;68250;43.514;1.494;2023-05-07T01:06:06;10.75;;;4.90;;
78873;SDS011;68250;43.514;1.494;2023-05-07T01:08:33;10.77;;;4.60;;
78873;SDS011;68250;43.514;1.494;2023-05-07T01:11:00;10.18;;;4.63;;
78873;SDS011;68250;43.514;1.494;2023-05-07T01:13:26;9.88;;;4.13;;
78873;SDS011;68250;43.514;1.494;2023-05-07T01:15:52;10.43;;;4.47;;
78873;SDS011;68250;43.514;1.494;2023-05-07T01:18:18;11.23;;;5.07;;
78873;SDS011;68250;43.514;1.494;2023-05-07T01:20:43;9.07;;;4.53;;
78873;SDS011;68250;43.514;1.494;2023-05-07T01:23:10;10.63;;;5.00;;
78873;SDS011;68250;43.514;1.494;2023-05-07T01:25:37;11.38;;;5.00;;
78873;SDS011;68250;43.514;1.494;2023-05-07T01:28:02;12.73;;;4.60;;
78873;SDS011;68250;43.514;1.494;2023-05-07T01:30:28;11.77;;;4.60;;
78873;SDS011;68250;43.514;1.494;2023-05-07T01:35:25;10.83;;;3.67;;
78873;SDS011;68250;43.514;1.494;2023-05-07T01:37:52;10.18;;;4.20;;
78873;SDS011;68250;43.514;1.494;2023-05-07T01:40:18;10.13;;;3.88;;
78873;SDS011;68250;43.514;1.494;2023-05-07T01:42:44;12.40;;;3.80;;
78873;SDS011;68250;43.514;1.494;2023-05-07T01:45:11;11.38;;;4.40;;
78873;SDS011;68250;43.514;1.494;2023-05-07T01:47:36;8.35;;;3.83;;
78873;SDS011;68250;43.514;1.494;2023-05-07T01:50:03;10.60;;;4.30;;
78873;SDS011;68250;43.514;1.494;2023-05-07T01:52:30;9.73;;;4.20;;
78873;SDS011;68250;43.514;1.494;2023-05-07T01:54:56;9.32;;;3.90;;
78873;SDS011;68250;43.514;1.494;2023-05-07T01:57:22;13.17;;;3.80;;
78873;SDS011;68250;43.514;1.494;2023-05-07T01:59:47;13.00;;;4.15;;
78873;SDS011;68250;43.514;1.494;2023-05-07T02:02:13;12.07;;;3.50;;
78873;SDS011;68250;43.514;1.494;2023-05-07T02:04:38;12.07;;;3.60;;
78873;SDS011;68250;43.514;1.494;2023-05-07T02:07:04;12.00;;;3.57;;
78873;SDS011;68250;43.514;1.494;2023-05-07T02:09:29;10.60;;;3.43;;
78873;SDS011;68250;43.514;1.494;2023-05-07T02:11:55;14.97;;;3.70;;
78873;SDS011;68250;43.514;1.494;2023-05-07T02:14:21;10.95;;;3.10;;
78873;SDS011;68250;43.514;1.494;2023-05-07T02:16:46;10.63;;;3.10;;
78873;SDS011;68250;43.514;1.494;2023-05-07T02:19:12;9.93;;;3.37;;
78873;SDS011;68250;43.514;1.494;2023-05-07T02:21:37;11.17;;;3.27;;
78873;SDS011;68250;43.514;1.494;2023-05-07T02:24:03;11.30;;;3.20;;
78873;SDS011;68250;43.514;1.494;2023-05-07T02:26:29;12.57;;;3.42;;
78873;SDS011;68250;43.514;1.494;2023-05-07T02:28:54;8.43;;;3.23;;
78873;SDS011;68250;43.514;1.494;2023-05-07T02:31:20;13.00;;;3.60;;
78873;SDS011;68250;43.514;1.494;2023-05-07T02:33:45;9.45;;;3.58;;
78873;SDS011;68250;43.514;1.494;2023-05-07T02:36:11;8.97;;;2.83;;
78873;SDS011;68250;43.514;1.494;2023-05-07T02:38:37;10.63;;;3.35;;
78873;SDS011;68250;43.514;1.494;2023-05-07T02:41:03;9.73;;;3.10;;
78873;SDS011;68250;43.514;1.494;2023-05-07T02:43:28;10.27;;;3.20;;
78873;SDS011;68250;43.514;1.494;2023-05-07T02:46:04;11.47;;;3.40;;
78873;SDS011;68250;43.514;1.494;2023-05-07T02:48:30;13.27;;;3.60;;
78873;SDS011;68250;43.514;1.494;2023-05-07T02:50:56;11.48;;;2.95;;
78873;SDS011;68250;43.514;1.494;2023-05-07T02:53:22;12.35;;;3.20;;
78873;SDS011;68250;43.514;1.494;2023-05-07T02:55:51;10.07;;;2.97;;
78873;SDS011;68250;43.514;1.494;2023-05-07T02:58:17;10.93;;;2.97;;
78873;SDS011;68250;43.514;1.494;2023-05-07T03:00:43;10.52;;;3.47;;
78873;SDS011;68250;43.514;1.494;2023-05-07T03:03:08;11.50;;;2.90;;
78873;SDS011;68250;43.514;1.494;2023-05-07T03:05:34;11.70;;;2.70;;
78873;SDS011;68250;43.514;1.494;2023-05-07T03:08:00;8.80;;;2.95;;
78873;SDS011;68250;43.514;1.494;2023-05-07T03:10:25;9.63;;;3.13;;
78873;SDS011;68250;43.514;1.494;2023-05-07T03:12:51;8.67;;;2.93;;
78873;SDS011;68250;43.514;1.494;2023-05-07T03:15:16;9.82;;;2.88;;
78873;SDS011;68250;43.514;1.494;2023-05-07T03:17:42;9.47;;;3.00;;
78873;SDS011;68250;43.514;1.494;2023-05-07T03:20:08;10.17;;;3.03;;
78873;SDS011;68250;43.514;1.494;2023-05-07T03:22:34;9.55;;;2.85;;
78873;SDS011;68250;43.514;1.494;2023-05-07T03:25:00;9.43;;;3.03;;
78873;SDS011;68250;43.514;1.494;2023-05-07T03:27:25;9.90;;;2.80;;
78873;SDS011;68250;43.514;1.494;2023-05-07T03:29:51;10.77;;;2.60;;
78873;SDS011;68250;43.514;1.494;2023-05-07T03:32:16;8.27;;;3.05;;
78873;SDS011;68250;43.514;1.494;2023-05-07T03:34:42;11.93;;;3.30;;
78873;SDS011;68250;43.514;1.494;2023-05-07T03:37:08;11.13;;;2.90;;
78873;SDS011;68250;43.514;1.494;2023-05-07T03:39:33;15.40;;;3.38;;
78873;SDS011;68250;43.514;1.494;2023-05-07T03:41:59;12.40;;;3.27;;
78873;SDS011;68250;43.514;1.494;2023-05-07T03:44:24;14.03;;;3.40;;
78873;SDS011;68250;43.514;1.494;2023-05-07T03:46:50;10.02;;;3.35;;
78873;SDS011;68250;43.514;1.494;2023-05-07T03:49:15;10.47;;;2.90;;
78873;SDS011;68250;43.514;1.494;2023-05-07T03:51:41;10.63;;;2.60;;
78873;SDS011;68250;43.514;1.494;2023-05-07T03:54:07;13.85;;;3.33;;
78873;SDS011;68250;43.514;1.494;2023-05-07T03:56:32;8.37;;;2.70;;
78873;SDS011;68250;43.514;1.494;2023-05-07T03:58:58;7.50;;;2.72;;
78873;SDS011;68250;43.514;1.494;2023-05-07T04:01:23;11.20;;;2.60;;
78873;SDS011;68250;43.514;1.494;2023-05-07T04:03:49;8.00;;;2.90;;
78873;SDS011;68250;43.514;1.494;2023-05-07T04:06:18;13.35;;;2.85;;
78873;SDS011;68250;43.514;1.494;2023-05-07T04:08:43;15.75;;;3.10;;
78873;SDS011;68250;43.514;1.494;2023-05-07T04:11:09;12.30;;;3.27;;
78873;SDS011;68250;43.514;1.494;2023-05-07T04:13:34;9.40;;;2.90;;
78873;SDS011;68250;43.514;1.494;2023-05-07T04:16:03;11.88;;;2.90;;
78873;SDS011;68250;43.514;1.494;2023-05-07T04:18:30;11.32;;;3.10;;
78873;SDS011;68250;43.514;1.494;2023-05-07T04:20:55;8.20;;;2.77;;
78873;SDS011;68250;43.514;1.494;2023-05-07T04:23:21;11.18;;;3.17;;
78873;SDS011;68250;43.514;1.494;2023-05-07T04:25:47;12.43;;;3.17;;
78873;SDS011;68250;43.514;1.494;2023-05-07T04:28:12;9.77;;;3.07;;
78873;SDS011;68250;43.514;1.494;2023-05-07T04:30:38;8.15;;;2.92;;
78873;SDS011;68250;43.514;1.494;2023-05-07T04:33:04;9.67;;;2.77;;
78873;SDS011;68250;43.514;1.494;2023-05-07T04:35:29;12.18;;;3.35;;
78873;SDS011;68250;43.514;1.494;2023-05-07T04:37:56;11.27;;;3.30;;
78873;SDS011;68250;43.514;1.494;2023-05-07T04:40:21;13.73;;;3.10;;
78873;SDS011;68250;43.514;1.494;2023-05-07T04:42:47;12.73;;;3.10;;
78873;SDS011;68250;43.514;1.494;2023-05-07T04:45:12;11.20;;;3.28;;
78873;SDS011;68250;43.514;1.494;2023-05-07T04:47:38;12.07;;;2.53;;
78873;SDS011;68250;43.514;1.494;2023-05-07T04:50:04;11.50;;;3.00;;
78873;SDS011;68250;43.514;1.494;2023-05-07T04:52:31;11.45;;;2.70;;
78873;SDS011;68250;43.514;1.494;2023-05-07T04:54:58;12.73;;;2.95;;
78873;SDS011;68250;43.514;1.494;2023-05-07T04:57:24;11.55;;;2.72;;
78873;SDS011;68250;43.514;1.494;2023-05-07T04:59:51;10.43;;;2.50;;
78873;SDS011;68250;43.514;1.494;2023-05-07T05:02:17;9.73;;;2.72;;
78873;SDS011;68250;43.514;1.494;2023-05-07T05:04:42;13.57;;;3.23;;
78873;SDS011;68250;43.514;1.494;2023-05-07T05:07:08;9.90;;;2.53;;
78873;SDS011;68250;43.514;1.494;2023-05-07T05:09:33;12.18;;;3.03;;
78873;SDS011;68250;43.514;1.494;2023-05-07T05:11:59;13.37;;;2.97;;
78873;SDS011;68250;43.514;1.494;2023-05-07T05:14:25;11.35;;;2.85;;
78873;SDS011;68250;43.514;1.494;2023-05-07T05:16:50;11.43;;;2.70;;
78873;SDS011;68250;43.514;1.494;2023-05-07T05:19:16;12.03;;;2.80;;
78873;SDS011;68250;43.514;1.494;2023-05-07T05:21:41;9.23;;;2.55;;
78873;SDS011;68250;43.514;1.494;2023-05-07T05:24:07;11.03;;;2.83;;
78873;SDS011;68250;43.514;1.494;2023-05-07T05:26:33;11.73;;;2.80;;
78873;SDS011;68250;43.514;1.494;2023-05-07T05:28:59;11.57;;;2.57;;
78873;SDS011;68250;43.514;1.494;2023-05-07T05:31:24;10.95;;;2.80;;
78873;SDS011;68250;43.514;1.494;2023-05-07T05:33:50;11.10;;;2.67;;
78873;SDS011;68250;43.514;1.494;2023-05-07T05:36:16;10.57;;;2.70;;
78873;SDS011;68250;43.514;1.494;2023-05-07T05:38:41;11.05;;;2.40;;
78873;SDS011;68250;43.514;1.494;2023-05-07T05:41:07;15.50;;;2.70;;
78873;SDS011;68250;43.514;1.494;2023-05-07T05:43:33;12.77;;;2.60;;
78873;SDS011;68250;43.514;1.494;2023-05-07T05:45:58;12.90;;;2.63;;
78873;SDS011;68250;43.514;1.494;2023-05-07T05:48:24;16.40;;;2.90;;
78873;SDS011;68250;43.514;1.494;2023-05-07T05:50:49;9.77;;;2.50;;
78873;SDS011;68250;43.514;1.494;2023-05-07T05:53:15;12.02;;;2.60;;
78873;SDS011;68250;43.514;1.494;2023-05-07T05:55:41;10.05;;;2.88;;
78873;SDS011;68250;43.514;1.494;2023-05-07T05:58:07;11.95;;;2.85;;
78873;SDS011;68250;43.514;1.494;2023-05-07T06:00:32;11.60;;;3.10;;
78873;SDS011;68250;43.514;1.494;2023-05-07T06:02:58;14.95;;;3.10;;
78873;SDS011;68250;43.514;1.494;2023-05-07T06:05:23;15.13;;;3.27;;
78873;SDS011;68250;43.514;1.494;2023-05-07T06:07:49;12.10;;;2.80;;
78873;SDS011;68250;43.514;1.494;2023-05-07T06:10:15;15.05;;;3.20;;
78873;SDS011;68250;43.514;1.494;2023-05-07T06:12:40;13.17;;;3.00;;
78873;SDS011;68250;43.514;1.494;2023-05-07T06:15:06;12.88;;;3.13;;
78873;SDS011;68250;43.514;1.494;2023-05-07T06:17:32;10.75;;;3.03;;
78873;SDS011;68250;43.514;1.494;2023-05-07T06:19:57;11.32;;;2.55;;
78873;SDS011;68250;43.514;1.494;2023-05-07T06:22:23;9.40;;;2.50;;
78873;SDS011;68250;43.514;1.494;2023-05-07T06:24:48;10.67;;;3.23;;
78873;SDS011;68250;43.514;1.494;2023-05-07T06:27:14;14.88;;;3.22;;
78873;SDS011;68250;43.514;1.494;2023-05-07T06:29:39;12.97;;;2.87;;
78873;SDS011;68250;43.514;1.494;2023-05-07T06:32:08;15.33;;;5.80;;
78873;SDS011;68250;43.514;1.494;2023-05-07T06:34:35;11.68;;;3.40;;
78873;SDS011;68250;43.514;1.494;2023-05-07T06:37:01;10.43;;;3.50;;
78873;SDS011;68250;43.514;1.494;2023-05-07T06:39:26;10.83;;;2.67;;
78873;SDS011;68250;43.514;1.494;2023-05-07T06:41:52;12.35;;;3.03;;
78873;SDS011;68250;43.514;1.494;2023-05-07T06:44:18;11.57;;;2.65;;
78873;SDS011;68250;43.514;1.494;2023-05-07T06:46:43;11.13;;;2.60;;
78873;SDS011;68250;43.514;1.494;2023-05-07T06:49:10;12.80;;;2.72;;
78873;SDS011;68250;43.514;1.494;2023-05-07T06:51:36;12.40;;;2.58;;
78873;SDS011;68250;43.514;1.494;2023-05-07T06:54:01;11.03;;;2.80;;
78873;SDS011;68250;43.514;1.494;2023-05-07T06:56:29;10.13;;;2.67;;
78873;SDS011;68250;43.514;1.494;2023-05-07T06:58:55;14.45;;;3.38;;
78873;SDS011;68250;43.514;1.494;2023-05-07T07:01:20;12.00;;;2.60;;
78873;SDS011;68250;43.514;1.494;2023-05-07T07:03:46;10.03;;;2.40;;
78873;SDS011;68250;43.514;1.494;2023-05-07T07:06:12;12.55;;;2.40;;
78873;SDS011;68250;43.514;1.494;2023-05-07T07:08:37;13.37;;;3.00;;
78873;SDS011;68250;43.514;1.494;2023-05-07T07:11:04;11.65;;;2.80;;
78873;SDS011;68250;43.514;1.494;2023-05-07T07:13:30;18.13;;;2.95;;
78873;SDS011;68250;43.514;1.494;2023-05-07T07:15:56;15.20;;;2.92;;
78873;SDS011;68250;43.514;1.494;2023-05-07T07:18:21;11.88;;;2.90;;
78873;SDS011;68250;43.514;1.494;2023-05-07T07:20:47;15.03;;;2.83;;
78873;SDS011;68250;43.514;1.494;2023-05-07T07:23:12;13.63;;;3.10;;
78873;SDS011;68250;43.514;1.494;2023-05-07T07:25:38;13.43;;;3.05;;
78873;SDS011;68250;43.514;1.494;2023-05-07T07:28:05;8.82;;;2.80;;
78873;SDS011;68250;43.514;1.494;2023-05-07T07:30:30;12.20;;;3.00;;
78873;SDS011;68250;43.514;1.494;2023-05-07T07:32:56;14.13;;;3.00;;
78873;SDS011;68250;43.514;1.494;2023-05-07T07:35:27;14.18;;;2.90;;
78873;SDS011;68250;43.514;1.494;2023-05-07T07:37:53;12.82;;;2.83;;
78873;SDS011;68250;43.514;1.494;2023-05-07T07:40:19;11.13;;;2.83;;
78873;SDS011;68250;43.514;1.494;2023-05-07T07:42:44;13.60;;;2.80;;
78873;SDS011;68250;43.514;1.494;2023-05-07T07:45:10;11.17;;;2.90;;
78873;SDS011;68250;43.514;1.494;2023-05-07T07:47:36;14.68;;;2.90;;
78873;SDS011;68250;43.514;1.494;2023-05-07T07:50:01;12.13;;;3.20;;
78873;SDS011;68250;43.514;1.494;2023-05-07T07:52:27;14.37;;;2.93;;
78873;SDS011;68250;43.514;1.494;2023-05-07T07:54:52;11.23;;;2.72;;
78873;SDS011;68250;43.514;1.494;2023-05-07T07:57:18;12.90;;;2.93;;
78873;SDS011;68250;43.514;1.494;2023-05-07T07:59:43;10.20;;;3.10;;
78873;SDS011;68250;43.514;1.494;2023-05-07T08:02:09;11.70;;;2.97;;
78873;SDS011;68250;43.514;1.494;2023-05-07T08:04:35;13.47;;;2.80;;
78873;SDS011;68250;43.514;1.494;2023-05-07T08:07:02;13.80;;;2.80;;
78873;SDS011;68250;43.514;1.494;2023-05-07T08:09:27;9.43;;;2.70;;
78873;SDS011;68250;43.514;1.494;2023-05-07T08:11:53;10.70;;;2.90;;
78873;SDS011;68250;43.514;1.494;2023-05-07T08:14:18;12.13;;;2.63;;
78873;SDS011;68250;43.514;1.494;2023-05-07T08:16:44;12.68;;;2.63;;
78873;SDS011;68250;43.514;1.494;2023-05-07T08:19:10;14.40;;;2.97;;
78873;SDS011;68250;43.514;1.494;2023-05-07T08:21:38;10.43;;;2.70;;
78873;SDS011;68250;43.514;1.494;2023-05-07T08:24:04;10.68;;;2.90;;
78873;SDS011;68250;43.514;1.494;2023-05-07T08:26:30;11.98;;;3.17;;
78873;SDS011;68250;43.514;1.494;2023-05-07T08:28:56;11.50;;;3.00;;
78873;SDS011;68250;43.514;1.494;2023-05-07T08:31:21;11.18;;;2.80;;
78873;SDS011;68250;43.514;1.494;2023-05-07T08:33:47;11.37;;;3.47;;
78873;SDS011;68250;43.514;1.494;2023-05-07T08:36:12;15.43;;;3.67;;
78873;SDS011;68250;43.514;1.494;2023-05-07T08:38:38;11.35;;;3.03;;
78873;SDS011;68250;43.514;1.494;2023-05-07T08:41:05;12.60;;;2.72;;
78873;SDS011;68250;43.514;1.494;2023-05-07T08:43:32;12.20;;;2.83;;
78873;SDS011;68250;43.514;1.494;2023-05-07T08:45:58;10.93;;;2.80;;
78873;SDS011;68250;43.514;1.494;2023-05-07T08:48:27;12.93;;;3.08;;
78873;SDS011;68250;43.514;1.494;2023-05-07T08:50:55;13.38;;;3.20;;
78873;SDS011;68250;43.514;1.494;2023-05-07T08:53:20;11.80;;;3.30;;
78873;SDS011;68250;43.514;1.494;2023-05-07T08:55:46;10.57;;;3.22;;
78873;SDS011;68250;43.514;1.494;2023-05-07T08:58:12;9.85;;;3.20;;
78873;SDS011;68250;43.514;1.494;2023-05-07T09:00:38;12.93;;;2.93;;
78873;SDS011;68250;43.514;1.494;2023-05-07T09:03:05;13.80;;;2.53;;
78873;SDS011;68250;43.514;1.494;2023-05-07T09:05:31;9.90;;;2.87;;
78873;SDS011;68250;43.514;1.494;2023-05-07T09:07:59;11.13;;;2.90;;
78873;SDS011;68250;43.514;1.494;2023-05-07T09:10:25;12.05;;;2.90;;
78873;SDS011;68250;43.514;1.494;2023-05-07T09:12:51;13.00;;;3.20;;
78873;SDS011;68250;43.514;1.494;2023-05-07T09:15:17;10.80;;;2.90;;
78873;SDS011;68250;43.514;1.494;2023-05-07T09:17:43;12.15;;;2.55;;
78873;SDS011;68250;43.514;1.494;2023-05-07T09:20:09;10.00;;;2.30;;
78873;SDS011;68250;43.514;1.494;2023-05-07T09:22:38;15.75;;;2.97;;
78873;SDS011;68250;43.514;1.494;2023-05-07T09:25:05;13.52;;;2.95;;
78873;SDS011;68250;43.514;1.494;2023-05-07T09:27:31;10.45;;;2.65;;
78873;SDS011;68250;43.514;1.494;2023-05-07T09:29:57;10.63;;;2.77;;
78873;SDS011;68250;43.514;1.494;2023-05-07T09:32:22;9.83;;;2.70;;
78873;SDS011;68250;43.514;1.494;2023-05-07T09:34:48;10.30;;;2.90;;
78873;SDS011;68250;43.514;1.494;2023-05-07T09:37:14;9.23;;;2.93;;
78873;SDS011;68250;43.514;1.494;2023-05-07T09:42:08;10.10;;;3.38;;
78873;SDS011;68250;43.514;1.494;2023-05-07T09:44:35;14.43;;;3.15;;
78873;SDS011;68250;43.514;1.494;2023-05-07T09:47:01;9.97;;;2.60;;
78873;SDS011;68250;43.514;1.494;2023-05-07T09:49:29;11.70;;;2.63;;
78873;SDS011;68250;43.514;1.494;2023-05-07T09:51:55;11.52;;;2.80;;
78873;SDS011;68250;43.514;1.494;2023-05-07T09:54:22;12.23;;;2.70;;
78873;SDS011;68250;43.514;1.494;2023-05-07T09:56:48;9.43;;;2.70;;
78873;SDS011;68250;43.514;1.494;2023-05-07T09:59:14;13.73;;;2.80;;
78873;SDS011;68250;43.514;1.494;2023-05-07T10:01:42;10.88;;;2.50;;
78873;SDS011;68250;43.514;1.494;2023-05-07T10:04:08;11.93;;;2.78;;
78873;SDS011;68250;43.514;1.494;2023-05-07T10:06:34;14.07;;;2.80;;
78873;SDS011;68250;43.514;1.494;2023-05-07T10:09:00;13.98;;;2.88;;
78873;SDS011;68250;43.514;1.494;2023-05-07T10:11:26;10.50;;;2.63;;
78873;SDS011;68250;43.514;1.494;2023-05-07T10:13:53;10.50;;;2.72;;
78873;SDS011;68250;43.514;1.494;2023-05-07T10:16:19;12.65;;;2.47;;
78873;SDS011;68250;43.514;1.494;2023-05-07T10:18:46;9.77;;;2.45;;
78873;SDS011;68250;43.514;1.494;2023-05-07T10:21:17;12.35;;;2.55;;
78873;SDS011;68250;43.514;1.494;2023-05-07T10:23:50;9.53;;;2.30;;
78873;SDS011;68250;43.514;1.494;2023-05-07T10:26:19;10.90;;;2.65;;
78873;SDS011;68250;43.514;1.494;2023-05-07T10:28:47;10.80;;;2.72;;
78873;SDS011;68250;43.514;1.494;2023-05-07T10:31:58;12.95;;;2.67;;
78873;SDS011;68250;43.514;1.494;2023-05-07T10:34:14;9.23;;;2.95;;
78873;SDS011;68250;43.514;1.494;2023-05-07T10:36:44;11.40;;;2.70;;
78873;SDS011;68250;43.514;1.494;2023-05-07T10:39:09;11.88;;;2.50;;
78873;SDS011;68250;43.514;1.494;2023-05-07T10:41:35;10.10;;;2.33;;
78873;SDS011;68250;43.514;1.494;2023-05-07T10:44:01;9.80;;;2.40;;
78873;SDS011;68250;43.514;1.494;2023-05-07T10:46:27;9.73;;;2.58;;
78873;SDS011;68250;43.514;1.494;2023-05-07T10:51:28;12.88;;;3.45;;
78873;SDS011;68250;43.514;1.494;2023-05-07T10:56:36;8.70;;;2.72;;
78873;SDS011;68250;43.514;1.494;2023-05-07T11:04:24;12.00;;;2.97;;
78873;SDS011;68250;43.514;1.494;2023-05-07T11:09:59;10.02;;;2.58;;
78873;SDS011;68250;43.514;1.494;2023-05-07T11:15:07;10.40;;;2.30;;
78873;SDS011;68250;43.514;1.494;2023-05-07T11:17:34;14.45;;;2.72;;
78873;SDS011;68250;43.514;1.494;2023-05-07T11:20:01;13.27;;;2.63;;
78873;SDS011;68250;43.514;1.494;2023-05-07T11:24:56;10.68;;;2.60;;
78873;SDS011;68250;43.514;1.494;2023-05-07T11:27:28;10.50;;;2.90;;
78873;SDS011;68250;43.514;1.494;2023-05-07T11:29:53;9.68;;;2.40;;
78873;SDS011;68250;43.514;1.494;2023-05-07T11:32:22;11.48;;;2.40;;
78873;SDS011;68250;43.514;1.494;2023-05-07T11:34:52;9.17;;;2.40;;
78873;SDS011;68250;43.514;1.494;2023-05-07T11:37:18;9.18;;;2.40;;
78873;SDS011;68250;43.514;1.494;2023-05-07T11:39:45;11.80;;;2.03;;
78873;SDS011;68250;43.514;1.494;2023-05-07T11:42:27;8.80;;;2.53;;
78873;SDS011;68250;43.514;1.494;2023-05-07T11:44:54;8.90;;;2.05;;
78873;SDS011;68250;43.514;1.494;2023-05-07T11:47:19;8.70;;;2.10;;
78873;SDS011;68250;43.514;1.494;2023-05-07T11:49:47;9.38;;;1.77;;
78873;SDS011;68250;43.514;1.494;2023-05-07T11:52:13;10.80;;;2.03;;
78873;SDS011;68250;43.514;1.494;2023-05-07T11:54:39;8.15;;;1.95;;
78873;SDS011;68250;43.514;1.494;2023-05-07T11:57:05;10.57;;;2.17;;
78873;SDS011;68250;43.514;1.494;2023-05-07T11:59:38;13.80;;;2.33;;
78873;SDS011;68250;43.514;1.494;2023-05-07T12:02:05;8.73;;;2.00;;
78873;SDS011;68250;43.514;1.494;2023-05-07T12:04:31;8.93;;;1.95;;
78873;SDS011;68250;43.514;1.494;2023-05-07T12:06:57;9.23;;;1.90;;
78873;SDS011;68250;43.514;1.494;2023-05-07T12:09:23;10.15;;;2.00;;
78873;SDS011;68250;43.514;1.494;2023-05-07T12:11:48;12.07;;;1.77;;
78873;SDS011;68250;43.514;1.494;2023-05-07T12:14:14;10.95;;;2.13;;
78873;SDS011;68250;43.514;1.494;2023-05-07T12:16:43;8.77;;;2.08;;
78873;SDS011;68250;43.514;1.494;2023-05-07T12:19:09;9.67;;;1.93;;
78873;SDS011;68250;43.514;1.494;2023-05-07T12:21:37;10.48;;;2.55;;
78873;SDS011;68250;43.514;1.494;2023-05-07T12:24:03;18.63;;;2.45;;
78873;SDS011;68250;43.514;1.494;2023-05-07T12:26:29;13.65;;;2.40;;
78873;SDS011;68250;43.514;1.494;2023-05-07T12:28:56;18.30;;;2.70;;
78873;SDS011;68250;43.514;1.494;2023-05-07T12:31:22;16.52;;;2.55;;
78873;SDS011;68250;43.514;1.494;2023-05-07T12:33:50;10.93;;;2.10;;
78873;SDS011;68250;43.514;1.494;2023-05-07T12:36:16;9.77;;;2.37;;
78873;SDS011;68250;43.514;1.494;2023-05-07T12:38:42;7.30;;;2.00;;
78873;SDS011;68250;43.514;1.494;2023-05-07T12:41:08;14.20;;;2.40;;
78873;SDS011;68250;43.514;1.494;2023-05-07T12:43:34;7.97;;;2.20;;
78873;SDS011;68250;43.514;1.494;2023-05-07T12:46:01;11.52;;;2.13;;
78873;SDS011;68250;43.514;1.494;2023-05-07T12:48:32;11.07;;;1.98;;
78873;SDS011;68250;43.514;1.494;2023-05-07T12:50:58;9.57;;;1.70;;
78873;SDS011;68250;43.514;1.494;2023-05-07T12:53:25;11.27;;;2.05;;
78873;SDS011;68250;43.514;1.494;2023-05-07T12:55:53;8.15;;;1.90;;
78873;SDS011;68250;43.514;1.494;2023-05-07T13:00:56;9.70;;;2.10;;
78873;SDS011;68250;43.514;1.494;2023-05-07T13:03:28;8.93;;;1.95;;
78873;SDS011;68250;43.514;1.494;2023-05-07T13:05:58;9.57;;;1.95;;
78873;SDS011;68250;43.514;1.494;2023-05-07T13:11:01;9.30;;;1.85;;
78873;SDS011;68250;43.514;1.494;2023-05-07T13:13:31;8.87;;;2.00;;
78873;SDS011;68250;43.514;1.494;2023-05-07T13:15:57;7.50;;;1.90;;
78873;SDS011;68250;43.514;1.494;2023-05-07T13:18:23;7.85;;;1.80;;
78873;SDS011;68250;43.514;1.494;2023-05-07T13:20:50;8.37;;;1.87;;
78873;SDS011;68250;43.514;1.494;2023-05-07T13:23:16;16.15;;;2.40;;
78873;SDS011;68250;43.514;1.494;2023-05-07T13:25:42;9.05;;;1.80;;
78873;SDS011;68250;43.514;1.494;2023-05-07T13:28:08;7.83;;;1.63;;
78873;SDS011;68250;43.514;1.494;2023-05-07T13:30:33;8.73;;;1.80;;
78873;SDS011;68250;43.514;1.494;2023-05-07T13:32:59;10.73;;;1.70;;
78873;SDS011;68250;43.514;1.494;2023-05-07T13:35:25;9.57;;;1.80;;
78873;SDS011;68250;43.514;1.494;2023-05-07T13:37:51;15.35;;;2.00;;
78873;SDS011;68250;43.514;1.494;2023-05-07T13:40:17;7.07;;;1.70;;
78873;SDS011;68250;43.514;1.494;2023-05-07T13:42:44;6.85;;;1.67;;
78873;SDS011;68250;43.514;1.494;2023-05-07T13:45:10;7.28;;;1.40;;
78873;SDS011;68250;43.514;1.494;2023-05-07T13:47:35;8.10;;;1.83;;
78873;SDS011;68250;43.514;1.494;2023-05-07T13:50:01;10.48;;;1.90;;
78873;SDS011;68250;43.514;1.494;2023-05-07T13:52:27;6.00;;;1.90;;
78873;SDS011;68250;43.514;1.494;2023-05-07T13:54:52;6.40;;;1.60;;
78873;SDS011;68250;43.514;1.494;2023-05-07T13:57:18;8.10;;;1.97;;
78873;SDS011;68250;43.514;1.494;2023-05-07T13:59:44;8.20;;;1.65;;
78873;SDS011;68250;43.514;1.494;2023-05-07T14:02:09;11.17;;;1.60;;
78873;SDS011;68250;43.514;1.494;2023-05-07T14:04:35;10.33;;;2.13;;
78873;SDS011;68250;43.514;1.494;2023-05-07T14:07:00;8.57;;;1.87;;
78873;SDS011;68250;43.514;1.494;2023-05-07T14:09:26;7.30;;;1.83;;
78873;SDS011;68250;43.514;1.494;2023-05-07T14:11:52;11.27;;;2.25;;
78873;SDS011;68250;43.514;1.494;2023-05-07T14:14:18;6.13;;;1.77;;
78873;SDS011;68250;43.514;1.494;2023-05-07T14:16:44;8.75;;;1.63;;
78873;SDS011;68250;43.514;1.494;2023-05-07T14:19:10;7.70;;;1.77;;
78873;SDS011;68250;43.514;1.494;2023-05-07T14:21:39;9.23;;;1.85;;
78873;SDS011;68250;43.514;1.494;2023-05-07T14:24:05;7.60;;;1.97;;
78873;SDS011;68250;43.514;1.494;2023-05-07T14:26:32;10.38;;;2.00;;
78873;SDS011;68250;43.514;1.494;2023-05-07T14:28:58;8.73;;;2.13;;
78873;SDS011;68250;43.514;1.494;2023-05-07T14:31:24;9.20;;;1.97;;
78873;SDS011;68250;43.514;1.494;2023-05-07T14:33:49;7.90;;;1.75;;
78873;SDS011;68250;43.514;1.494;2023-05-07T14:36:16;6.07;;;1.60;;
78873;SDS011;68250;43.514;1.494;2023-05-07T14:38:42;8.00;;;1.90;;
78873;SDS011;68250;43.514;1.494;2023-05-07T14:41:08;8.00;;;1.70;;
78873;SDS011;68250;43.514;1.494;2023-05-07T14:43:33;7.23;;;1.83;;
78873;SDS011;68250;43.514;1.494;2023-05-07T14:45:59;7.47;;;1.70;;
78873;SDS011;68250;43.514;1.494;2023-05-07T14:48:24;8.07;;;1.80;;
78873;SDS011;68250;43.514;1.494;2023-05-07T14:50:50;10.27;;;2.00;;
78873;SDS011;68250;43.514;1.494;2023-05-07T14:53:15;8.70;;;2.10;;
78873;SDS011;68250;43.514;1.494;2023-05-07T14:55:41;8.13;;;2.17;;
78873;SDS011;68250;43.514;1.494;2023-05-07T14:58:07;8.63;;;1.75;;
78873;SDS011;68250;43.514;1.494;2023-05-07T15:00:33;6.00;;;1.57;;